Terminal Aerodrome Forecast
Issued by NWS

Home | Current Version | Previous Version | Text Only | Print | Product List | Glossary On
Versions: 1 2 3 4 5 6 7 8 9 10 11 12 13
000
FTUS42 TJSJ 030529
TAFIST
TAF
TIST 030529Z 0306/0406 08003KT P6SM FEW020
     FM031300 15008KT P6SM FEW025
     FM032300 07005KT P6SM FEW025=

USA.gov is the U.S. government's official web portal to all federal, state and local government web resources and services.